createdAt,value
2023-01-30T00:01:16.818Z,45.30
2023-01-30T00:03:44.011Z,46.47
2023-01-30T00:06:11.695Z,44.40
2023-01-30T00:08:39.380Z,46.40
2023-01-30T00:11:07.176Z,46.83
2023-01-30T00:13:34.762Z,46.05
2023-01-30T00:16:02.160Z,46.80
2023-01-30T00:18:29.426Z,41.30
2023-01-30T00:21:00.414Z,44.83
2023-01-30T00:23:27.922Z,46.10
2023-01-30T00:25:55.613Z,45.33
2023-01-30T00:28:22.977Z,47.38
2023-01-30T00:30:50.744Z,47.95
2023-01-30T00:33:18.398Z,42.40
2023-01-30T00:35:46.943Z,45.00
2023-01-30T00:38:14.476Z,47.50
2023-01-30T00:40:41.688Z,45.40
2023-01-30T00:43:30.106Z,45.38
2023-01-30T00:46:15.924Z,48.30
2023-01-30T00:48:43.007Z,42.95
2023-01-30T00:51:11.139Z,45.42
2023-01-30T00:53:38.179Z,48.20
2023-01-30T00:56:05.456Z,44.30
2023-01-30T00:58:33.669Z,47.55
2023-01-30T01:01:00.697Z,47.83
2023-01-30T01:03:27.710Z,46.80
2023-01-30T01:05:55.778Z,46.85
2023-01-30T01:08:22.866Z,48.33
2023-01-30T01:10:49.886Z,47.67
2023-01-30T01:13:16.955Z,46.63
2023-01-30T01:15:43.962Z,49.58
2023-01-30T01:18:11.021Z,44.38
2023-01-30T01:20:38.048Z,45.42
2023-01-30T01:23:05.169Z,44.78
2023-01-30T01:25:32.291Z,48.92
2023-01-30T01:27:59.343Z,49.50
2023-01-30T01:30:26.485Z,48.95
2023-01-30T01:32:53.608Z,43.47
2023-01-30T01:35:20.670Z,46.65
2023-01-30T01:37:47.728Z,45.70
2023-01-30T01:40:40.255Z,43.58
2023-01-30T01:43:17.815Z,45.45
2023-01-30T01:45:45.874Z,48.67
2023-01-30T01:48:16.190Z,47.47
2023-01-30T01:50:47.514Z,44.75
2023-01-30T01:53:16.793Z,47.38
2023-01-30T01:55:45.674Z,43.35
2023-01-30T01:58:16.205Z,46.75
2023-01-30T02:00:43.448Z,46.03
2023-01-30T02:03:16.183Z,45.33
2023-01-30T02:05:44.509Z,47.13
2023-01-30T02:08:15.864Z,48.22
2023-01-30T02:11:05.876Z,43.55
2023-01-30T02:13:33.414Z,47.88
2023-01-30T02:16:01.589Z,48.22
2023-01-30T02:18:32.641Z,46.63
2023-01-30T02:21:05.407Z,51.38
2023-01-30T02:23:38.271Z,37.47
2023-01-30T02:26:16.305Z,35.50
2023-01-30T02:29:01.032Z,51.30
2023-01-30T02:31:30.885Z,49.22
2023-01-30T02:34:07.137Z,49.28
2023-01-30T02:36:52.397Z,49.00
2023-01-30T02:39:22.151Z,49.80
2023-01-30T02:41:53.461Z,48.20
2023-01-30T02:44:43.825Z,51.80
2023-01-30T02:47:10.824Z,43.85
2023-01-30T02:49:47.689Z,45.42
2023-01-30T02:52:16.759Z,51.92
2023-01-30T02:54:44.340Z,48.10
2023-01-30T02:57:21.647Z,46.95
2023-01-30T02:59:50.039Z,51.22
2023-01-30T03:02:37.456Z,46.80
2023-01-30T03:05:07.223Z,48.70
2023-01-30T03:07:52.758Z,48.60
2023-01-30T03:10:24.660Z,50.65
2023-01-30T03:12:59.660Z,46.22
2023-01-30T03:15:26.882Z,53.25
2023-01-30T03:17:55.112Z,49.25
2023-01-30T03:20:22.264Z,44.50
2023-01-30T03:22:49.363Z,46.47
2023-01-30T03:25:20.815Z,49.50
2023-01-30T03:27:48.510Z,50.40
2023-01-30T03:30:15.616Z,51.35
2023-01-30T03:32:42.639Z,46.22
2023-01-30T03:35:09.868Z,46.33
2023-01-30T03:37:36.904Z,50.55
2023-01-30T03:40:04.429Z,51.75
2023-01-30T03:42:31.645Z,48.92
2023-01-30T03:44:58.707Z,44.90
2023-01-30T03:47:25.709Z,49.33
2023-01-30T03:49:52.719Z,47.40
2023-01-30T03:52:20.260Z,46.05
2023-01-30T03:54:47.329Z,50.33
2023-01-30T03:57:14.423Z,52.45
2023-01-30T03:59:41.453Z,50.13
2023-01-30T04:02:08.644Z,48.67
2023-01-30T04:04:36.106Z,49.90
2023-01-30T04:07:03.326Z,47.05
2023-01-30T04:09:30.370Z,46.67
2023-01-30T04:11:57.403Z,47.83
2023-01-30T04:14:24.404Z,44.28
2023-01-30T04:16:51.424Z,50.22
2023-01-30T04:19:18.542Z,48.15
2023-01-30T04:21:45.547Z,44.17
2023-01-30T04:24:12.584Z,48.13
2023-01-30T04:26:39.813Z,47.70
2023-01-30T04:29:07.204Z,47.88
2023-01-30T04:31:34.363Z,48.13
2023-01-30T04:34:01.428Z,47.47
2023-01-30T04:36:31.491Z,46.05
2023-01-30T04:38:58.558Z,48.45
2023-01-30T04:41:25.617Z,48.35
2023-01-30T04:43:52.629Z,46.38
2023-01-30T04:46:19.650Z,42.50
2023-01-30T04:48:46.708Z,46.17
2023-01-30T04:51:13.767Z,49.38
2023-01-30T04:53:40.880Z,46.65
2023-01-30T04:56:08.358Z,45.45
2023-01-30T04:58:35.462Z,46.10
2023-01-30T05:01:25.564Z,42.45
2023-01-30T05:03:53.410Z,46.42
2023-01-30T05:06:20.882Z,42.90
2023-01-30T05:08:55.052Z,43.80
2023-01-30T05:11:22.326Z,48.53
2023-01-30T05:13:49.951Z,44.58
2023-01-30T05:16:17.711Z,45.58
2023-01-30T05:18:45.315Z,43.95
2023-01-30T05:21:14.408Z,43.17
2023-01-30T05:23:41.840Z,43.20
2023-01-30T05:26:08.961Z,44.13
2023-01-30T05:28:36.125Z,40.45
2023-01-30T05:31:07.224Z,40.20
2023-01-30T05:33:34.442Z,41.42
2023-01-30T05:36:01.513Z,39.42
2023-01-30T05:38:28.963Z,42.83
2023-01-30T05:41:06.141Z,41.17
2023-01-30T05:43:33.744Z,37.42
2023-01-30T05:46:01.931Z,34.70
2023-01-30T05:48:29.044Z,44.35
2023-01-30T05:50:57.268Z,40.60
2023-01-30T05:53:25.156Z,38.65
2023-01-30T05:55:56.256Z,40.60
2023-01-30T05:58:23.771Z,40.42
2023-01-30T06:00:51.143Z,39.65
2023-01-30T06:03:18.220Z,38.85
2023-01-30T06:05:45.213Z,40.10
2023-01-30T06:08:12.449Z,37.55
2023-01-30T06:10:39.469Z,40.50
2023-01-30T06:13:06.467Z,40.15
2023-01-30T06:15:33.574Z,40.97
2023-01-30T06:18:00.628Z,39.67
2023-01-30T06:20:27.788Z,37.47
2023-01-30T06:22:54.816Z,36.53
2023-01-30T06:25:21.815Z,36.67
2023-01-30T06:27:48.898Z,36.50
2023-01-30T06:30:16.075Z,37.35
2023-01-30T06:32:43.098Z,37.00
2023-01-30T06:35:10.329Z,37.97
2023-01-30T06:37:37.353Z,36.47
2023-01-30T06:40:04.531Z,38.00
2023-01-30T06:42:31.552Z,35.35
2023-01-30T06:44:58.564Z,37.95
2023-01-30T06:47:25.617Z,26.98
2023-01-30T06:49:52.795Z,36.30
2023-01-30T06:52:19.786Z,35.78
2023-01-30T06:54:46.778Z,33.60
2023-01-30T06:57:13.875Z,36.95
2023-01-30T06:59:40.937Z,34.55
2023-01-30T07:02:08.224Z,32.85
2023-01-30T07:04:35.378Z,34.63
2023-01-30T07:07:02.364Z,33.45
2023-01-30T07:09:29.445Z,35.55
2023-01-30T07:11:56.639Z,31.17
2023-01-30T07:14:23.655Z,31.55
2023-01-30T07:16:50.711Z,33.40
2023-01-30T07:19:17.807Z,32.05
2023-01-30T07:21:44.867Z,32.63
2023-01-30T07:24:11.965Z,37.28
2023-01-30T07:26:38.987Z,31.98
2023-01-30T07:29:06.077Z,32.72
2023-01-30T07:31:33.154Z,29.05
2023-01-30T07:34:00.156Z,30.58
2023-01-30T07:36:27.161Z,30.15
2023-01-30T07:38:54.179Z,30.35
2023-01-30T07:41:21.215Z,27.85
2023-01-30T07:43:49.380Z,27.15
2023-01-30T07:46:16.481Z,28.25
2023-01-30T07:48:44.965Z,26.92
2023-01-30T07:51:12.095Z,27.80
2023-01-30T07:53:39.100Z,28.73
2023-01-30T07:56:09.241Z,27.52
2023-01-30T07:58:36.595Z,29.52
2023-01-30T08:01:03.677Z,34.30
2023-01-30T08:03:30.751Z,24.13
2023-01-30T08:05:57.807Z,25.33
2023-01-30T08:08:24.908Z,30.65
2023-01-30T08:10:52.050Z,29.75
2023-01-30T08:13:19.082Z,28.00
2023-01-30T08:15:46.175Z,28.08
2023-01-30T08:18:13.173Z,30.17
2023-01-30T08:20:40.288Z,29.65
2023-01-30T08:23:07.382Z,24.92
2023-01-30T08:25:35.439Z,27.08
2023-01-30T08:28:02.617Z,25.75
2023-01-30T08:30:30.557Z,36.53
2023-01-30T08:32:58.444Z,36.75
2023-01-30T08:35:25.574Z,28.80
2023-01-30T08:37:52.618Z,26.55
2023-01-30T08:40:20.006Z,24.88
2023-01-30T08:42:47.252Z,26.50
2023-01-30T08:45:14.364Z,27.25
2023-01-30T08:47:41.377Z,28.02
2023-01-30T08:50:08.749Z,26.45
2023-01-30T08:52:35.808Z,22.77
2023-01-30T08:55:02.898Z,26.85
2023-01-30T08:57:29.908Z,32.58
2023-01-30T08:59:56.971Z,31.27
2023-01-30T09:02:24.068Z,29.98
2023-01-30T09:04:51.116Z,28.55
2023-01-30T09:07:18.175Z,30.33
2023-01-30T09:09:45.203Z,35.25
2023-01-30T09:12:12.187Z,24.48
2023-01-30T09:14:39.308Z,26.00
2023-01-30T09:17:06.482Z,25.60
2023-01-30T09:19:35.825Z,29.50
2023-01-30T09:22:02.869Z,35.95
2023-01-30T09:24:30.153Z,27.30
2023-01-30T09:26:58.875Z,35.92
2023-01-30T09:29:29.428Z,35.13
2023-01-30T09:31:56.860Z,27.42
2023-01-30T09:34:27.612Z,28.77
2023-01-30T09:37:00.165Z,24.63
2023-01-30T09:39:27.599Z,32.72
2023-01-30T09:42:07.525Z,24.40
2023-01-30T09:44:34.498Z,24.75
2023-01-30T09:47:24.585Z,26.83
2023-01-30T09:50:08.758Z,27.63
2023-01-30T09:52:58.432Z,25.88
2023-01-30T09:55:27.937Z,26.85
2023-01-30T09:57:55.578Z,23.65
2023-01-30T10:00:29.197Z,22.48
2023-01-30T10:03:12.183Z,22.85
2023-01-30T10:06:02.250Z,23.77
2023-01-30T10:08:38.464Z,21.58
2023-01-30T10:11:14.604Z,21.20
2023-01-30T10:13:41.616Z,23.27
2023-01-30T10:16:16.759Z,18.55
2023-01-30T10:18:58.673Z,21.50
2023-01-30T10:21:28.418Z,28.70
2023-01-30T10:24:00.253Z,26.70
2023-01-30T10:26:29.430Z,32.40
2023-01-30T10:29:07.677Z,19.05
2023-01-30T10:31:42.816Z,17.98
2023-01-30T10:34:19.305Z,25.77
2023-01-30T10:37:09.692Z,21.40
2023-01-30T10:39:54.936Z,18.35
2023-01-30T10:42:42.784Z,22.65
2023-01-30T10:45:16.995Z,22.38
2023-01-30T10:47:49.277Z,18.27
2023-01-30T10:50:16.751Z,22.48
2023-01-30T10:52:54.193Z,18.45
2023-01-30T10:55:40.427Z,19.38
2023-01-30T10:58:16.067Z,18.23
2023-01-30T11:01:01.936Z,16.15
2023-01-30T11:03:34.814Z,21.73
2023-01-30T11:06:18.962Z,19.80
2023-01-30T11:08:46.392Z,17.58
2023-01-30T11:11:30.658Z,22.35
2023-01-30T11:14:08.198Z,20.60
2023-01-30T11:16:55.537Z,22.60
2023-01-30T11:19:31.690Z,17.83
2023-01-30T11:22:02.039Z,25.67
2023-01-30T11:24:33.964Z,16.73
2023-01-30T11:27:11.288Z,15.82
2023-01-30T11:29:41.078Z,20.08
2023-01-30T11:32:19.605Z,15.48
2023-01-30T11:35:01.459Z,19.83
2023-01-30T11:37:32.206Z,19.33
2023-01-30T11:39:59.399Z,22.20
2023-01-30T11:42:30.333Z,11.60
2023-01-30T11:45:15.732Z,20.75
2023-01-30T11:47:57.034Z,16.98
2023-01-30T11:50:31.193Z,14.45
2023-01-30T11:53:02.641Z,20.85
2023-01-30T11:55:34.396Z,15.00
2023-01-30T11:58:02.458Z,14.95
2023-01-30T12:00:39.010Z,16.55
2023-01-30T12:03:07.060Z,20.75
2023-01-30T12:05:35.565Z,18.02
2023-01-30T12:08:31.205Z,20.92
2023-01-30T12:11:03.210Z,17.88
2023-01-30T12:13:39.548Z,20.67
2023-01-30T12:16:21.793Z,19.75
2023-01-30T12:19:12.876Z,18.77
2023-01-30T12:21:44.580Z,16.80
2023-01-30T12:24:18.899Z,16.55
2023-01-30T12:26:55.873Z,17.13
2023-01-30T12:29:29.094Z,18.42
2023-01-30T12:32:05.962Z,14.27
2023-01-30T12:34:33.164Z,13.63
2023-01-30T12:37:20.707Z,16.92
2023-01-30T12:40:06.044Z,27.05
2023-01-30T12:42:43.745Z,22.33
2023-01-30T12:45:24.028Z,16.65
2023-01-30T12:47:51.117Z,15.75
2023-01-30T12:50:32.650Z,15.50
2023-01-30T12:53:18.507Z,16.30
2023-01-30T12:55:45.485Z,16.17
2023-01-30T12:58:16.604Z,13.25
2023-01-30T13:00:55.867Z,16.58
2023-01-30T13:03:37.568Z,16.02
2023-01-30T13:06:23.014Z,14.73
2023-01-30T13:08:53.632Z,15.55
2023-01-30T13:11:42.523Z,12.65
2023-01-30T13:14:15.770Z,19.17
2023-01-30T13:16:52.929Z,13.57
2023-01-30T13:19:25.489Z,16.13
2023-01-30T13:22:12.443Z,15.25
2023-01-30T13:24:52.009Z,14.73
2023-01-30T13:27:20.411Z,18.70
2023-01-30T13:29:48.627Z,15.68
2023-01-30T13:32:19.069Z,21.23
2023-01-30T13:34:47.849Z,16.70
2023-01-30T13:37:16.439Z,14.98
2023-01-30T13:39:43.432Z,12.90
2023-01-30T13:42:29.193Z,13.70
2023-01-30T13:44:57.381Z,16.67
2023-01-30T13:47:34.114Z,15.18
2023-01-30T13:50:20.461Z,15.73
2023-01-30T13:52:57.527Z,13.38
2023-01-30T13:55:24.618Z,14.90
2023-01-30T13:57:56.683Z,12.98
2023-01-30T14:00:29.053Z,15.68
2023-01-30T14:03:04.964Z,16.15
2023-01-30T14:05:50.539Z,15.88
2023-01-30T14:08:22.242Z,16.48
2023-01-30T14:10:49.708Z,18.13
2023-01-30T14:13:20.011Z,14.48
2023-01-30T14:15:57.927Z,15.15
2023-01-30T14:18:31.069Z,14.52
2023-01-30T14:21:22.525Z,12.85
2023-01-30T14:24:00.121Z,11.60
2023-01-30T14:26:45.858Z,13.43
2023-01-30T14:29:12.923Z,14.75
2023-01-30T14:31:49.741Z,14.18
2023-01-30T14:34:37.103Z,14.82
2023-01-30T14:37:05.263Z,13.55
2023-01-30T14:39:40.459Z,14.82
2023-01-30T14:42:27.421Z,15.32
2023-01-30T14:44:57.381Z,13.85
2023-01-30T14:47:32.345Z,17.25
2023-01-30T14:50:03.454Z,13.75
2023-01-30T14:52:35.080Z,18.42
2023-01-30T14:55:02.975Z,17.23
2023-01-30T14:57:34.629Z,14.02
2023-01-30T15:00:15.911Z,14.98
2023-01-30T15:02:49.789Z,15.65
2023-01-30T15:05:20.699Z,14.77
2023-01-30T15:07:50.222Z,13.63
2023-01-30T15:10:36.303Z,14.88
2023-01-30T15:13:09.097Z,16.65
2023-01-30T15:15:41.326Z,15.90
2023-01-30T15:18:11.444Z,18.02
2023-01-30T15:20:45.566Z,15.63
2023-01-30T15:23:26.856Z,19.90
2023-01-30T15:26:14.429Z,18.30
2023-01-30T15:28:41.425Z,17.73
2023-01-30T15:31:14.159Z,14.85
2023-01-30T15:33:45.317Z,15.23
2023-01-30T15:36:35.399Z,17.67
2023-01-30T15:39:06.650Z,18.20
2023-01-30T15:41:39.984Z,17.15
2023-01-30T15:44:14.780Z,16.75
2023-01-30T15:47:00.947Z,18.93
2023-01-30T15:49:28.074Z,18.77
2023-01-30T15:51:55.096Z,35.63
2023-01-30T15:54:24.380Z,17.13
2023-01-30T15:56:51.465Z,18.23
2023-01-30T15:59:26.904Z,19.65
2023-01-30T16:02:04.751Z,18.70
2023-01-30T16:04:32.389Z,18.10
2023-01-30T16:06:59.748Z,19.90
2023-01-30T16:09:27.102Z,18.08
2023-01-30T16:11:54.356Z,20.83
2023-01-30T16:14:22.663Z,17.83
2023-01-30T16:16:49.768Z,17.20
2023-01-30T16:19:29.571Z,19.73
2023-01-30T16:21:59.574Z,19.08
2023-01-30T16:24:29.712Z,19.15
2023-01-30T16:27:01.130Z,16.65
2023-01-30T16:29:29.714Z,19.73
2023-01-30T16:31:57.255Z,17.25
2023-01-30T16:34:34.484Z,18.98
2023-01-30T16:37:08.409Z,15.80
2023-01-30T16:39:36.352Z,17.27
2023-01-30T16:42:05.099Z,17.52
2023-01-30T16:44:33.052Z,19.85
2023-01-30T16:47:05.978Z,17.55
2023-01-30T16:49:32.977Z,20.43
2023-01-30T16:52:01.670Z,18.25
2023-01-30T16:54:30.078Z,16.13
2023-01-30T16:56:58.751Z,18.08
2023-01-30T16:59:30.645Z,19.02
2023-01-30T17:01:59.132Z,18.83
2023-01-30T17:04:31.201Z,20.20
2023-01-30T17:07:04.020Z,23.02
2023-01-30T17:09:34.096Z,20.13
2023-01-30T17:12:01.245Z,19.55
2023-01-30T17:14:32.816Z,18.92
2023-01-30T17:17:00.822Z,19.70
2023-01-30T17:19:28.188Z,18.92
2023-01-30T17:21:57.066Z,20.75
2023-01-30T17:24:25.198Z,21.58
2023-01-30T17:26:54.217Z,20.42
2023-01-30T17:29:41.597Z,19.20
2023-01-30T17:32:11.307Z,21.42
2023-01-30T17:34:40.988Z,18.75
2023-01-30T17:37:10.829Z,17.05
2023-01-30T17:39:37.867Z,19.52
2023-01-30T17:42:06.471Z,20.33
2023-01-30T17:44:33.493Z,17.38
2023-01-30T17:47:00.584Z,17.58
2023-01-30T17:49:27.608Z,17.48
2023-01-30T17:51:55.491Z,17.77
2023-01-30T17:54:22.690Z,20.75
2023-01-30T17:56:52.934Z,18.15
2023-01-30T17:59:20.611Z,18.90
2023-01-30T18:01:48.802Z,14.27
2023-01-30T18:04:16.267Z,19.38
2023-01-30T18:06:44.466Z,19.35
2023-01-30T18:09:19.653Z,19.10
2023-01-30T18:11:47.137Z,18.45
2023-01-30T18:14:14.490Z,17.30
2023-01-30T18:16:41.730Z,19.52
2023-01-30T18:19:10.108Z,17.10
2023-01-30T18:21:42.699Z,18.00
2023-01-30T18:24:09.900Z,19.38
2023-01-30T18:26:36.953Z,17.73
2023-01-30T18:29:04.150Z,18.77
2023-01-30T18:31:31.689Z,18.10
2023-01-30T18:33:58.980Z,17.13
2023-01-30T18:36:26.099Z,17.25
2023-01-30T18:38:53.913Z,16.05
2023-01-30T18:41:22.219Z,16.13
2023-01-30T18:43:54.230Z,17.58
2023-01-30T18:46:21.362Z,16.67
2023-01-30T18:48:48.469Z,17.02
2023-01-30T18:51:15.522Z,17.73
2023-01-30T18:53:43.301Z,18.50
2023-01-30T18:56:11.795Z,19.83
2023-01-30T18:58:39.006Z,17.15
2023-01-30T19:01:14.196Z,16.40
2023-01-30T19:03:41.710Z,20.20
2023-01-30T19:06:10.795Z,16.65
2023-01-30T19:08:38.753Z,16.20
2023-01-30T19:11:29.052Z,17.98
2023-01-30T19:13:56.656Z,15.40
2023-01-30T19:16:24.653Z,18.90
2023-01-30T19:18:52.017Z,21.45
2023-01-30T19:21:19.021Z,16.88
2023-01-30T19:23:46.389Z,16.63
2023-01-30T19:26:13.735Z,18.52
2023-01-30T19:28:44.789Z,19.65
2023-01-30T19:31:16.433Z,19.92
2023-01-30T19:33:44.071Z,18.25
2023-01-30T19:36:21.528Z,18.80
2023-01-30T19:38:49.598Z,18.70
2023-01-30T19:41:17.794Z,16.90
2023-01-30T19:43:45.036Z,16.42
2023-01-30T19:46:12.378Z,18.48
2023-01-30T19:48:39.846Z,15.70
2023-01-30T19:51:14.465Z,17.58
2023-01-30T19:53:42.465Z,17.98
2023-01-30T19:56:10.588Z,17.02
2023-01-30T19:58:38.283Z,16.73
2023-01-30T20:01:12.731Z,15.68
2023-01-30T20:03:40.839Z,15.07
2023-01-30T20:06:13.878Z,17.13
2023-01-30T20:08:41.862Z,14.82
2023-01-30T20:11:09.997Z,15.90
2023-01-30T20:13:37.713Z,13.13
2023-01-30T20:16:08.682Z,15.32
2023-01-30T20:18:37.978Z,14.73
2023-01-30T20:21:06.874Z,15.90
2023-01-30T20:23:34.058Z,14.48
2023-01-30T20:26:03.537Z,14.48
2023-01-30T20:28:30.551Z,15.02
2023-01-30T20:30:57.583Z,13.90
2023-01-30T20:33:24.658Z,13.45
2023-01-30T20:35:51.745Z,17.67
2023-01-30T20:38:18.740Z,18.48
2023-01-30T20:40:47.243Z,14.05
2023-01-30T20:43:14.596Z,14.30
2023-01-30T20:45:41.664Z,14.35
2023-01-30T20:48:08.740Z,14.10
2023-01-30T20:50:35.799Z,16.23
2023-01-30T20:53:02.863Z,14.50
2023-01-30T20:55:29.886Z,9.73
2023-01-30T20:57:56.920Z,15.48
2023-01-30T21:00:23.980Z,15.23
2023-01-30T21:02:51.544Z,16.33
2023-01-30T21:05:19.388Z,13.32
2023-01-30T21:07:46.683Z,17.00
2023-01-30T21:10:13.774Z,13.73
2023-01-30T21:12:40.838Z,14.75
2023-01-30T21:15:08.179Z,13.23
2023-01-30T21:17:35.274Z,14.27
2023-01-30T21:20:02.356Z,17.73
2023-01-30T21:22:29.332Z,16.85
2023-01-30T21:24:56.328Z,16.67
2023-01-30T21:27:23.640Z,13.55
2023-01-30T21:29:50.709Z,15.20
2023-01-30T21:32:18.814Z,15.68
2023-01-30T21:34:45.817Z,14.02
2023-01-30T21:37:31.647Z,16.90
2023-01-30T21:40:17.530Z,13.50
2023-01-30T21:43:03.464Z,14.00
2023-01-30T21:45:30.677Z,17.98
2023-01-30T21:47:57.990Z,17.30
2023-01-30T21:50:27.563Z,17.42
2023-01-30T21:52:54.591Z,17.02
2023-01-30T21:55:21.889Z,17.80
2023-01-30T21:57:49.175Z,14.82
2023-01-30T22:00:16.383Z,15.15
2023-01-30T22:02:43.411Z,15.82
2023-01-30T22:05:10.553Z,14.00
2023-01-30T22:07:37.669Z,18.42
2023-01-30T22:10:04.864Z,16.55
2023-01-30T22:12:32.343Z,15.90
2023-01-30T22:14:59.412Z,16.60
2023-01-30T22:17:26.484Z,17.88
2023-01-30T22:19:54.066Z,18.75
2023-01-30T22:22:22.415Z,16.77
2023-01-30T22:24:49.472Z,17.13
2023-01-30T22:27:17.023Z,16.50
2023-01-30T22:29:44.052Z,18.15
2023-01-30T22:32:11.187Z,16.80
2023-01-30T22:34:38.312Z,19.42
2023-01-30T22:37:05.355Z,15.05
2023-01-30T22:39:32.431Z,15.82
2023-01-30T22:41:59.404Z,14.88
2023-01-30T22:44:26.563Z,18.85
2023-01-30T22:46:53.647Z,13.25
2023-01-30T22:49:20.685Z,14.00
2023-01-30T22:51:47.738Z,14.52
2023-01-30T22:54:15.981Z,15.80
2023-01-30T22:56:44.192Z,14.43
2023-01-30T22:59:11.840Z,12.82
2023-01-30T23:01:39.987Z,11.95
2023-01-30T23:04:08.338Z,12.95
2023-01-30T23:06:36.822Z,14.35
2023-01-30T23:09:04.758Z,14.57
2023-01-30T23:11:31.909Z,19.63
2023-01-30T23:14:04.752Z,11.05
2023-01-30T23:16:32.965Z,14.65
2023-01-30T23:19:00.109Z,14.25
2023-01-30T23:21:28.721Z,12.73
2023-01-30T23:23:57.083Z,11.98
2023-01-30T23:26:25.205Z,13.52
2023-01-30T23:28:52.277Z,15.32
2023-01-30T23:31:20.642Z,14.07
2023-01-30T23:33:47.813Z,15.52
2023-01-30T23:36:15.251Z,12.90
2023-01-30T23:38:42.294Z,11.05
2023-01-30T23:41:14.432Z,13.63
2023-01-30T23:43:42.565Z,13.93
2023-01-30T23:46:10.832Z,12.18
2023-01-30T23:48:37.850Z,17.70
2023-01-30T23:51:05.029Z,14.63
2023-01-30T23:53:32.153Z,14.07
2023-01-30T23:55:59.216Z,13.40
2023-01-30T23:58:26.236Z,13.80
